createdAt,value
2023-04-02T00:00:53.801Z,50.45
2023-04-02T00:01:53.726Z,51.93
2023-04-02T00:02:53.628Z,51.77
2023-04-02T00:09:21.999Z,49.51
2023-04-02T00:10:21.947Z,50.81
2023-04-02T00:11:21.969Z,51.16
2023-04-02T00:12:21.897Z,50.47
2023-04-02T00:33:27.894Z,52.43
2023-04-02T00:34:27.873Z,51.86
2023-04-02T00:35:27.778Z,51.03
2023-04-02T00:36:27.770Z,51.27
2023-04-02T00:37:27.770Z,50.59
2023-04-02T00:38:27.756Z,51.71
2023-04-02T00:39:27.684Z,52.07
2023-04-02T00:40:27.747Z,54.86
2023-04-02T00:41:27.770Z,50.54
2023-04-02T00:42:27.681Z,54.34
2023-04-02T00:43:27.700Z,51.03
2023-04-02T00:44:27.662Z,50.36
2023-04-02T00:45:27.613Z,50.95
2023-04-02T00:46:27.711Z,55.98
2023-04-02T00:47:27.669Z,52.62
2023-04-02T00:48:27.640Z,53.52
2023-04-02T00:49:27.600Z,52.37
2023-04-02T00:50:27.682Z,54.90
2023-04-02T00:51:27.584Z,52.54
2023-04-02T00:52:27.652Z,52.01
2023-04-02T00:53:27.531Z,51.75
2023-04-02T00:54:27.542Z,50.60
2023-04-02T00:55:27.524Z,51.40
2023-04-02T00:56:27.510Z,52.42
2023-04-02T00:57:27.598Z,50.91
2023-04-02T00:58:27.504Z,51.72
2023-04-02T00:59:27.458Z,51.25
2023-04-02T01:00:27.463Z,52.13
2023-04-02T01:01:27.572Z,55.27
2023-04-02T01:02:27.494Z,55.69
2023-04-02T01:03:28.758Z,54.83
2023-04-02T01:04:28.562Z,51.56
2023-04-02T01:05:28.576Z,51.95
2023-04-02T01:06:28.596Z,54.73
2023-04-02T01:07:28.573Z,53.46
2023-04-02T01:08:28.503Z,52.74
2023-04-02T01:09:28.547Z,53.51
2023-04-02T01:10:28.568Z,51.87
2023-04-02T01:11:28.532Z,52.08
2023-04-02T01:12:28.557Z,51.32
2023-04-02T01:13:28.536Z,50.80
2023-04-02T01:14:28.492Z,51.22
2023-04-02T01:15:28.432Z,54.24
2023-04-02T01:16:28.538Z,52.55
2023-04-02T01:17:28.512Z,50.22
2023-04-02T01:18:28.454Z,50.87
2023-04-02T01:19:28.427Z,51.51
2023-04-02T01:20:28.463Z,52.54
2023-04-02T01:21:28.375Z,50.51
2023-04-02T01:22:28.336Z,49.83
2023-04-02T01:23:28.413Z,51.33
2023-04-02T01:24:28.328Z,50.55
2023-04-02T01:25:28.356Z,50.43
2023-04-02T01:26:28.314Z,49.78
2023-04-02T01:27:28.314Z,50.35
2023-04-02T01:28:28.439Z,53.75
2023-04-02T01:29:28.447Z,51.03
2023-04-02T01:30:28.236Z,50.99
2023-04-02T01:31:28.240Z,51.57
2023-04-02T01:32:28.295Z,50.18
2023-04-02T01:33:28.270Z,52.53
2023-04-02T01:34:28.196Z,53.59
2023-04-02T01:35:28.160Z,53.00
2023-04-02T01:36:28.158Z,54.49
2023-04-02T01:37:28.144Z,53.17
2023-04-02T01:38:28.194Z,53.47
2023-04-02T01:39:28.113Z,51.52
2023-04-02T01:40:28.144Z,50.61
2023-04-02T01:41:28.100Z,52.11
2023-04-02T01:42:28.103Z,50.95
2023-04-02T01:43:28.079Z,53.03
2023-04-02T01:44:28.098Z,52.72
2023-04-02T01:45:28.049Z,53.03
2023-04-02T01:46:28.092Z,53.37
2023-04-02T01:47:28.044Z,50.16
2023-04-02T01:48:28.049Z,50.43
2023-04-02T01:49:28.036Z,50.35
2023-04-02T01:50:29.010Z,51.91
2023-04-02T01:51:27.992Z,50.96
2023-04-02T01:52:27.961Z,51.57
2023-04-02T01:53:27.976Z,50.96
2023-04-02T01:54:27.945Z,55.77
2023-04-02T01:55:27.976Z,51.60
2023-04-02T01:56:27.939Z,53.89
2023-04-02T01:57:27.946Z,52.39
2023-04-02T01:58:27.906Z,52.93
2023-04-02T01:59:28.070Z,50.40
2023-04-02T02:00:28.021Z,50.97
2023-04-02T02:01:27.881Z,51.76
2023-04-02T02:02:27.935Z,51.37
2023-04-02T02:03:27.845Z,52.18
2023-04-02T02:04:27.870Z,51.91
2023-04-02T02:05:27.823Z,50.86
2023-04-02T02:06:27.844Z,50.57
2023-04-02T02:07:27.821Z,51.40
2023-04-02T02:08:27.804Z,53.31
2023-04-02T02:09:27.782Z,52.32
2023-04-02T02:10:27.773Z,52.67
2023-04-02T02:11:27.794Z,53.96
2023-04-02T02:12:27.758Z,50.62
2023-04-02T02:13:27.750Z,53.18
2023-04-02T02:14:27.739Z,53.24
2023-04-02T02:15:28.097Z,52.25
2023-04-02T02:16:27.773Z,53.41
2023-04-02T02:17:27.774Z,52.99
2023-04-02T02:18:27.712Z,53.61
2023-04-02T02:19:27.672Z,52.89
2023-04-02T02:20:27.672Z,50.69
2023-04-02T02:21:27.716Z,49.40
2023-04-02T02:22:27.650Z,51.59
2023-04-02T02:23:27.632Z,51.65
2023-04-02T02:24:27.917Z,51.77
2023-04-02T02:25:27.625Z,49.44
2023-04-02T02:26:27.596Z,51.13
2023-04-02T02:27:27.628Z,51.60
2023-04-02T02:28:27.570Z,53.75
2023-04-02T02:29:27.564Z,50.26
2023-04-02T02:30:27.558Z,52.00
2023-04-02T02:31:27.542Z,51.77
2023-04-02T02:32:27.593Z,52.05
2023-04-02T02:33:27.534Z,51.74
2023-04-02T02:34:27.507Z,50.18
2023-04-02T02:35:27.483Z,49.88
2023-04-02T02:36:27.544Z,52.56
2023-04-02T02:37:27.466Z,53.29
2023-04-02T02:38:27.481Z,50.71
2023-04-02T02:39:27.483Z,52.41
2023-04-02T02:40:27.442Z,50.71
2023-04-02T02:41:27.443Z,51.40
2023-04-02T02:42:27.420Z,51.22
2023-04-02T02:43:27.470Z,52.12
2023-04-02T02:44:27.424Z,52.15
2023-04-02T02:45:27.374Z,52.04
2023-04-02T02:46:27.403Z,54.41
2023-04-02T02:47:27.410Z,51.28
2023-04-02T02:48:27.397Z,51.02
2023-04-02T02:49:27.339Z,52.88
2023-04-02T02:50:27.317Z,54.16
2023-04-02T02:51:27.341Z,52.18
2023-04-02T02:52:27.291Z,53.99
2023-04-02T02:53:27.291Z,54.15
2023-04-02T02:54:27.297Z,51.06
2023-04-02T02:55:27.282Z,51.20
2023-04-02T02:56:27.262Z,52.96
2023-04-02T02:57:27.258Z,51.87
2023-04-02T02:58:27.232Z,52.43
2023-04-02T02:59:27.291Z,53.71
2023-04-02T03:00:27.216Z,53.69
2023-04-02T03:01:27.302Z,53.08
2023-04-02T03:02:27.248Z,51.71
2023-04-02T03:03:27.250Z,51.77
2023-04-02T03:04:27.207Z,53.32
2023-04-02T03:05:27.174Z,51.43
2023-04-02T03:06:27.148Z,53.55
2023-04-02T03:07:27.166Z,52.31
2023-04-02T03:08:27.122Z,52.36
2023-04-02T03:09:27.400Z,53.43
2023-04-02T03:10:27.776Z,53.14
2023-04-02T03:11:27.101Z,52.49
2023-04-02T03:12:27.079Z,52.15
2023-04-02T03:13:27.051Z,51.69
2023-04-02T03:14:27.053Z,51.84
2023-04-02T03:15:27.071Z,53.74
2023-04-02T03:16:27.170Z,51.88
2023-04-02T03:17:27.036Z,51.04
2023-04-02T03:18:27.013Z,52.30
2023-04-02T03:19:27.595Z,52.06
2023-04-02T03:20:27.006Z,54.48
2023-04-02T03:21:26.974Z,54.26
2023-04-02T03:22:26.969Z,53.24
2023-04-02T03:23:26.947Z,52.15
2023-04-02T03:24:26.934Z,51.62
2023-04-02T03:25:26.954Z,51.55
2023-04-02T03:26:26.931Z,51.34
2023-04-02T03:27:26.897Z,52.82
2023-04-02T03:28:26.916Z,51.50
2023-04-02T03:29:26.884Z,50.92
2023-04-02T03:30:26.929Z,54.48
2023-04-02T03:31:26.919Z,53.01
2023-04-02T03:32:26.899Z,52.10
2023-04-02T03:33:26.837Z,52.88
2023-04-02T03:34:26.846Z,52.44
2023-04-02T03:35:26.848Z,52.51
2023-04-02T03:36:26.803Z,51.79
2023-04-02T03:37:26.793Z,53.15
2023-04-02T03:38:26.779Z,53.02
2023-04-02T03:39:26.823Z,54.64
2023-04-02T03:40:26.765Z,53.39
2023-04-02T03:41:26.758Z,52.85
2023-04-02T03:42:26.748Z,54.26
2023-04-02T03:43:26.728Z,51.96
2023-04-02T03:44:26.729Z,52.41
2023-04-02T03:45:26.695Z,52.88
2023-04-02T03:46:26.740Z,51.07
2023-04-02T03:47:26.741Z,50.44
2023-04-02T03:48:26.676Z,52.31
2023-04-02T03:49:26.655Z,53.43
2023-04-02T03:50:26.667Z,52.63
2023-04-02T03:51:26.652Z,55.45
2023-04-02T03:52:26.676Z,53.89
2023-04-02T03:53:26.650Z,53.52
2023-04-02T03:54:26.685Z,54.17
2023-04-02T03:55:26.650Z,53.49
2023-04-02T03:56:26.686Z,52.52
2023-04-02T03:57:26.605Z,54.95
2023-04-02T03:58:26.556Z,52.79
2023-04-02T03:59:26.548Z,52.04
2023-04-02T04:00:26.526Z,52.54
2023-04-02T04:01:26.564Z,53.60
2023-04-02T04:02:26.626Z,54.18
2023-04-02T04:03:26.484Z,53.30
2023-04-02T04:04:26.538Z,52.69
2023-04-02T04:05:26.482Z,53.42
2023-04-02T04:06:26.460Z,52.41
2023-04-02T04:07:26.486Z,52.97
2023-04-02T04:08:26.428Z,53.16
2023-04-02T04:09:26.435Z,53.82
2023-04-02T04:10:26.430Z,52.99
2023-04-02T04:11:26.448Z,51.66
2023-04-02T04:12:26.437Z,52.46
2023-04-02T04:13:26.405Z,52.70
2023-04-02T04:14:26.377Z,54.68
2023-04-02T04:15:26.360Z,55.60
2023-04-02T04:16:26.414Z,57.26
2023-04-02T04:17:26.362Z,56.66
2023-04-02T04:18:26.320Z,56.52
2023-04-02T04:19:26.330Z,56.40
2023-04-02T04:20:26.328Z,54.54
2023-04-02T04:21:26.314Z,57.62
2023-04-02T04:22:26.341Z,56.13
2023-04-02T04:23:26.265Z,56.11
2023-04-02T04:24:26.276Z,54.94
2023-04-02T04:25:26.237Z,55.85
2023-04-02T04:26:26.234Z,56.86
2023-04-02T04:27:26.243Z,56.21
2023-04-02T04:28:26.209Z,56.56
2023-04-02T04:29:26.193Z,57.41
2023-04-02T04:30:26.189Z,56.09
2023-04-02T04:31:26.242Z,57.44
2023-04-02T04:32:26.181Z,56.57
2023-04-02T04:33:26.183Z,55.72
2023-04-02T04:34:26.154Z,54.52
2023-04-02T04:35:26.146Z,55.33
2023-04-02T04:36:26.106Z,54.18
2023-04-02T04:37:27.096Z,54.67
2023-04-02T04:38:26.122Z,54.94
2023-04-02T04:39:26.074Z,52.99
2023-04-02T04:40:26.064Z,54.85
2023-04-02T04:41:26.066Z,54.15
2023-04-02T04:42:26.042Z,55.97
2023-04-02T04:43:26.096Z,54.19
2023-04-02T04:44:26.035Z,55.55
2023-04-02T04:45:26.009Z,55.20
2023-04-02T04:46:26.076Z,54.22
2023-04-02T04:47:26.019Z,54.30
2023-04-02T04:48:25.981Z,54.30
2023-04-02T04:49:25.995Z,54.42
2023-04-02T04:50:25.947Z,54.43
2023-04-02T04:51:25.938Z,54.39
2023-04-02T04:52:25.945Z,55.19
2023-04-02T04:53:25.925Z,55.48
2023-04-02T04:54:25.945Z,57.03
2023-04-02T04:55:25.900Z,54.61
2023-04-02T04:56:25.884Z,56.09
2023-04-02T04:57:25.892Z,53.47
2023-04-02T04:58:25.874Z,53.92
2023-04-02T04:59:25.889Z,54.38
2023-04-02T05:00:25.844Z,54.95
2023-04-02T05:01:25.843Z,54.71
2023-04-02T05:02:25.816Z,53.11
2023-04-02T05:03:25.818Z,53.77
2023-04-02T05:04:25.822Z,54.79
2023-04-02T05:05:25.804Z,52.97
2023-04-02T05:06:25.771Z,55.43
2023-04-02T05:07:25.767Z,54.23
2023-04-02T05:08:25.750Z,52.72
2023-04-02T05:09:25.899Z,53.62
2023-04-02T05:10:25.736Z,53.82
2023-04-02T05:11:25.715Z,55.00
2023-04-02T05:12:25.696Z,53.94
2023-04-02T05:13:25.699Z,53.73
2023-04-02T05:14:25.679Z,54.92
2023-04-02T05:15:25.704Z,53.23
2023-04-02T05:16:25.702Z,55.06
2023-04-02T05:17:25.683Z,54.62
2023-04-02T05:18:25.726Z,54.08
2023-04-02T05:19:25.628Z,53.64
2023-04-02T05:20:25.649Z,54.05
2023-04-02T05:21:25.604Z,54.81
2023-04-02T05:22:25.590Z,55.40
2023-04-02T05:23:25.577Z,54.95
2023-04-02T05:24:25.570Z,55.01
2023-04-02T05:25:25.567Z,55.52
2023-04-02T05:26:25.557Z,54.94
2023-04-02T05:27:25.531Z,56.23
2023-04-02T05:28:25.530Z,55.55
2023-04-02T05:29:25.511Z,54.60
2023-04-02T05:30:25.497Z,54.35
2023-04-02T05:31:25.566Z,55.85
2023-04-02T05:32:25.491Z,56.06
2023-04-02T05:33:25.465Z,55.59
2023-04-02T05:34:25.457Z,54.42
2023-04-02T05:35:25.448Z,55.42
2023-04-02T05:36:25.509Z,55.48
2023-04-02T05:37:25.437Z,55.15
2023-04-02T05:38:25.413Z,55.69
2023-04-02T05:39:25.412Z,55.32
2023-04-02T05:40:25.399Z,54.72
2023-04-02T05:41:25.381Z,54.07
2023-04-02T05:42:25.384Z,54.84
2023-04-02T05:43:25.356Z,54.29
2023-04-02T05:44:25.355Z,55.77
2023-04-02T05:45:25.328Z,56.98
2023-04-02T05:46:25.331Z,54.61
2023-04-02T05:47:25.356Z,55.82
2023-04-02T05:48:25.313Z,54.37
2023-04-02T05:49:25.281Z,54.73
2023-04-02T05:50:25.259Z,53.49
2023-04-02T05:51:25.265Z,53.80
2023-04-02T05:52:25.311Z,53.81
2023-04-02T05:53:25.245Z,55.94
2023-04-02T05:54:25.225Z,56.36
2023-04-02T05:55:26.856Z,55.32
2023-04-02T05:56:25.198Z,55.96
2023-04-02T05:57:39.401Z,56.86
2023-04-02T05:59:26.194Z,56.41
2023-04-02T06:00:25.178Z,54.96
2023-04-02T06:01:25.156Z,55.77
2023-04-02T06:02:25.235Z,57.19
2023-04-02T06:03:25.184Z,56.29
2023-04-02T06:04:25.591Z,55.12
2023-04-02T06:05:25.097Z,55.57
2023-04-02T06:06:25.091Z,56.22
2023-04-02T06:07:25.069Z,56.41
2023-04-02T06:08:25.089Z,55.88
2023-04-02T06:09:25.047Z,56.93
2023-04-02T06:10:25.106Z,55.69
2023-04-02T06:11:25.027Z,53.53
2023-04-02T06:12:25.021Z,55.91
2023-04-02T06:13:25.425Z,57.69
2023-04-02T06:14:25.008Z,54.89
2023-04-02T06:15:24.984Z,56.60
2023-04-02T06:16:24.998Z,55.33
2023-04-02T06:17:25.050Z,54.77
2023-04-02T06:18:24.966Z,55.00
2023-04-02T06:19:24.932Z,56.63
2023-04-02T06:20:24.941Z,54.85
2023-04-02T06:21:24.937Z,54.63
2023-04-02T06:22:24.896Z,55.46
2023-04-02T06:23:24.944Z,56.32
2023-04-02T06:24:24.956Z,56.09
2023-04-02T06:25:24.857Z,56.78
2023-04-02T06:26:24.861Z,55.11
2023-04-02T06:27:24.836Z,55.70
2023-04-02T06:28:25.876Z,54.77
2023-04-02T06:29:24.821Z,56.33
2023-04-02T06:30:24.809Z,55.44
2023-04-02T06:31:24.829Z,55.48
2023-04-02T06:32:24.820Z,55.21
2023-04-02T06:33:24.795Z,55.45
2023-04-02T06:34:24.777Z,54.72
2023-04-02T06:35:24.763Z,56.15
2023-04-02T06:36:24.831Z,55.49
2023-04-02T06:37:24.762Z,55.51
2023-04-02T06:38:24.740Z,56.12
2023-04-02T06:39:24.723Z,56.99
2023-04-02T06:40:24.707Z,55.88
2023-04-02T06:41:24.687Z,56.20
2023-04-02T06:42:24.667Z,56.81
2023-04-02T06:43:24.687Z,55.87
2023-04-02T06:44:24.677Z,56.06
2023-04-02T06:45:24.648Z,56.82
2023-04-02T06:46:24.689Z,56.34
2023-04-02T06:47:24.739Z,55.53
2023-04-02T06:48:24.615Z,56.27
2023-04-02T06:49:24.617Z,55.20
2023-04-02T06:50:24.587Z,55.36
2023-04-02T06:51:24.566Z,56.21
2023-04-02T06:52:24.566Z,56.02
2023-04-02T06:53:24.714Z,57.61
2023-04-02T06:54:24.588Z,56.49
2023-04-02T06:55:24.579Z,55.86
2023-04-02T06:56:24.522Z,55.52
2023-04-02T06:57:24.516Z,56.19
2023-04-02T06:58:24.517Z,57.52
2023-04-02T06:59:25.299Z,54.54
2023-04-02T07:00:24.455Z,54.74
2023-04-02T07:01:24.492Z,55.73
2023-04-02T07:02:24.452Z,55.02
2023-04-02T07:03:24.448Z,57.25
2023-04-02T07:04:24.497Z,56.00
2023-04-02T07:05:24.408Z,56.68
2023-04-02T07:06:24.420Z,57.20
2023-04-02T07:07:24.394Z,56.62
2023-04-02T07:08:25.191Z,56.55
2023-04-02T07:09:24.358Z,55.77
2023-04-02T07:10:24.387Z,56.19
2023-04-02T07:11:24.342Z,57.06
2023-04-02T07:12:24.328Z,57.29
2023-04-02T07:13:24.328Z,57.73
2023-04-02T07:14:24.336Z,56.89
2023-04-02T07:15:24.293Z,56.87
2023-04-02T07:16:24.328Z,55.56
2023-04-02T07:17:24.312Z,58.34
2023-04-02T07:18:24.283Z,55.85
2023-04-02T07:19:24.278Z,57.43
2023-04-02T07:20:24.309Z,57.06
2023-04-02T07:21:24.230Z,58.38
2023-04-02T07:22:24.243Z,56.50
2023-04-02T07:23:24.205Z,57.73
2023-04-02T07:24:24.186Z,57.33
2023-04-02T07:25:24.202Z,55.98
2023-04-02T07:26:24.161Z,56.74
2023-04-02T07:27:24.160Z,57.05
2023-04-02T07:28:24.191Z,55.81
2023-04-02T07:29:24.135Z,55.12
2023-04-02T07:30:24.154Z,56.05
2023-04-02T07:31:24.210Z,56.96
2023-04-02T07:32:24.087Z,55.04
2023-04-02T07:33:24.083Z,55.32
2023-04-02T07:34:24.073Z,57.88
2023-04-02T07:35:24.111Z,56.26
2023-04-02T07:36:24.079Z,56.44
2023-04-02T07:37:24.036Z,54.51
2023-04-02T07:38:24.046Z,55.77
2023-04-02T07:39:24.030Z,54.70
2023-04-02T07:40:24.090Z,57.39
2023-04-02T07:41:24.029Z,57.84
2023-04-02T07:42:24.019Z,58.42
2023-04-02T07:43:23.972Z,56.10
2023-04-02T07:44:23.981Z,57.57
2023-04-02T07:45:23.983Z,54.78
2023-04-02T07:46:23.985Z,56.61
2023-04-02T07:47:23.925Z,55.15
2023-04-02T07:48:23.929Z,56.62
2023-04-02T07:49:23.906Z,56.32
2023-04-02T07:50:23.880Z,57.27
2023-04-02T07:51:23.924Z,57.41
2023-04-02T07:52:23.859Z,57.33
2023-04-02T07:53:23.858Z,57.35
2023-04-02T07:54:23.833Z,56.32
2023-04-02T07:55:23.851Z,56.82
2023-04-02T07:56:23.882Z,57.26
2023-04-02T07:57:23.891Z,57.69
2023-04-02T07:58:23.803Z,55.37
2023-04-02T07:59:23.780Z,56.73
2023-04-02T08:00:23.798Z,57.47
2023-04-02T08:01:23.823Z,56.47
2023-04-02T08:02:23.831Z,56.36
2023-04-02T08:03:23.792Z,57.46
2023-04-02T08:04:23.760Z,57.29
2023-04-02T08:05:23.722Z,57.18
2023-04-02T08:06:23.828Z,57.11
2023-04-02T08:07:23.718Z,57.69
2023-04-02T08:08:23.870Z,56.34
2023-04-02T08:09:23.682Z,55.77
2023-04-02T08:10:23.666Z,56.79
2023-04-02T08:11:23.644Z,58.58
2023-04-02T08:12:23.669Z,58.05
2023-04-02T08:13:23.630Z,58.75
2023-04-02T08:14:23.591Z,58.35
2023-04-02T08:15:23.590Z,57.13
2023-04-02T08:16:23.612Z,57.37
2023-04-02T08:17:23.647Z,57.27
2023-04-02T08:18:23.572Z,56.13
2023-04-02T08:19:23.535Z,56.39
2023-04-02T08:20:23.520Z,56.95
2023-04-02T08:21:23.522Z,55.40
2023-04-02T08:22:23.524Z,57.72
2023-04-02T08:23:23.548Z,56.65
2023-04-02T08:24:23.489Z,55.55
2023-04-02T08:25:23.460Z,57.90
2023-04-02T08:26:23.454Z,57.48
2023-04-02T08:27:23.452Z,56.73
2023-04-02T08:28:23.523Z,56.65
2023-04-02T08:29:23.449Z,58.13
2023-04-02T08:30:23.427Z,56.58
2023-04-02T08:31:23.466Z,56.14
2023-04-02T08:32:23.410Z,56.18
2023-04-02T08:33:23.425Z,56.30
2023-04-02T08:34:23.361Z,56.61
2023-04-02T08:35:23.350Z,57.50
2023-04-02T08:36:23.375Z,57.98
2023-04-02T08:37:23.330Z,57.78
2023-04-02T08:38:23.333Z,58.13
2023-04-02T08:39:23.373Z,56.57
2023-04-02T08:40:23.311Z,55.86
2023-04-02T08:41:23.291Z,56.47
2023-04-02T08:42:23.268Z,56.38
2023-04-02T08:43:23.768Z,57.27
2023-04-02T08:44:23.300Z,57.35
2023-04-02T08:45:25.061Z,57.93
2023-04-02T08:46:25.281Z,57.10
2023-04-02T08:47:23.261Z,57.04
2023-04-02T08:48:23.215Z,57.64
2023-04-02T08:49:23.196Z,58.26
2023-04-02T08:50:23.207Z,59.77
2023-04-02T08:51:23.180Z,58.60
2023-04-02T08:52:23.246Z,58.80
2023-04-02T08:53:23.162Z,56.16
2023-04-02T08:54:23.131Z,58.22
2023-04-02T08:55:23.155Z,57.99
2023-04-02T08:56:23.121Z,57.86
2023-04-02T08:57:23.160Z,59.39
2023-04-02T08:58:23.394Z,57.43
2023-04-02T08:59:23.099Z,56.90
2023-04-02T09:00:23.110Z,57.63
2023-04-02T09:01:23.062Z,58.11
2023-04-02T09:02:23.123Z,59.14
2023-04-02T09:03:23.043Z,57.87
2023-04-02T09:04:23.083Z,58.84
2023-04-02T09:05:23.020Z,58.58
2023-04-02T09:06:23.027Z,60.03
2023-04-02T09:07:23.213Z,58.05
2023-04-02T09:08:22.961Z,56.20
2023-04-02T09:09:22.960Z,57.08
2023-04-02T09:10:22.956Z,57.16
2023-04-02T09:11:22.953Z,57.28
2023-04-02T09:12:22.915Z,57.48
2023-04-02T09:13:22.922Z,58.44
2023-04-02T09:14:22.896Z,58.57
2023-04-02T09:15:22.890Z,57.12
2023-04-02T09:16:22.972Z,57.01
2023-04-02T09:17:22.881Z,59.03
2023-04-02T09:18:22.949Z,59.01
2023-04-02T09:19:22.862Z,58.90
2023-04-02T09:20:22.833Z,57.85
2023-04-02T09:21:22.839Z,58.65
2023-04-02T09:22:22.841Z,56.42
2023-04-02T09:23:22.807Z,59.15
2023-04-02T09:24:22.808Z,59.48
2023-04-02T09:25:22.778Z,59.39
2023-04-02T09:26:22.755Z,59.37
2023-04-02T09:27:22.824Z,58.85
2023-04-02T09:28:22.759Z,59.40
2023-04-02T09:29:22.735Z,60.18
2023-04-02T09:30:22.717Z,57.64
2023-04-02T09:31:22.777Z,57.90
2023-04-02T09:32:22.733Z,58.48
2023-04-02T09:33:22.697Z,56.97
2023-04-02T09:34:22.693Z,58.60
2023-04-02T09:35:26.645Z,59.35
2023-04-02T09:36:23.669Z,57.81
2023-04-02T09:37:22.646Z,58.86
2023-04-02T09:38:22.647Z,58.65
2023-04-02T09:39:22.614Z,58.55
2023-04-02T09:40:22.610Z,59.00
2023-04-02T09:41:22.596Z,58.51
2023-04-02T09:42:22.596Z,58.76
2023-04-02T09:43:22.617Z,58.89
2023-04-02T09:44:22.567Z,56.90
2023-04-02T09:45:22.558Z,60.14
2023-04-02T09:46:22.591Z,58.98
2023-04-02T09:47:23.276Z,58.28
2023-04-02T09:48:22.550Z,58.37
2023-04-02T09:49:22.512Z,59.48
2023-04-02T09:50:22.491Z,57.57
2023-04-02T09:51:22.480Z,59.90
2023-04-02T09:52:22.462Z,59.20
2023-04-02T09:53:23.072Z,60.60
2023-04-02T09:54:22.466Z,59.88
2023-04-02T09:55:22.487Z,57.48
2023-04-02T09:56:22.415Z,60.06
2023-04-02T09:57:22.490Z,59.22
2023-04-02T09:58:22.405Z,59.26
2023-04-02T09:59:22.402Z,62.07
2023-04-02T10:00:31.459Z,61.78
2023-04-02T10:01:23.414Z,59.38
2023-04-02T10:02:22.921Z,57.59
2023-04-02T10:03:22.341Z,59.07
2023-04-02T10:04:24.419Z,61.60
2023-04-02T10:05:30.173Z,59.77
2023-04-02T10:06:23.302Z,57.98
2023-04-02T10:07:22.292Z,57.20
2023-04-02T10:08:22.284Z,59.37
2023-04-02T10:09:22.306Z,58.85
2023-04-02T10:10:23.906Z,57.09
2023-04-02T10:11:22.258Z,60.63
2023-04-02T10:12:22.236Z,59.91
2023-04-02T10:13:22.216Z,57.79
2023-04-02T10:14:22.221Z,58.90
2023-04-02T10:15:22.248Z,55.84
2023-04-02T10:16:23.347Z,59.37
2023-04-02T10:17:22.251Z,59.31
2023-04-02T10:18:22.158Z,57.52
2023-04-02T10:19:22.157Z,58.08
2023-04-02T10:20:22.241Z,58.92
2023-04-02T10:21:22.137Z,59.89
2023-04-02T10:22:23.137Z,60.69
2023-04-02T10:23:22.123Z,59.45
2023-04-02T10:24:22.110Z,60.15
2023-04-02T10:25:22.092Z,59.64
2023-04-02T10:26:22.088Z,56.99
2023-04-02T10:27:22.073Z,56.90
2023-04-02T10:28:22.054Z,58.76
2023-04-02T10:29:57.424Z,60.85
2023-04-02T10:30:22.508Z,58.97
2023-04-02T10:31:22.827Z,59.47
2023-04-02T10:32:24.898Z,60.97
2023-04-02T10:33:22.089Z,60.65
2023-04-02T10:34:22.014Z,59.17
2023-04-02T10:35:22.043Z,61.83
2023-04-02T10:36:22.045Z,60.88
2023-04-02T10:37:22.026Z,61.36
2023-04-02T10:38:21.965Z,59.02
2023-04-02T10:39:21.955Z,60.75
2023-04-02T10:40:21.985Z,60.90
2023-04-02T10:41:22.857Z,60.85
2023-04-02T10:42:21.956Z,60.84
2023-04-02T10:43:21.900Z,57.58
2023-04-02T10:44:21.979Z,60.29
2023-04-02T10:45:21.965Z,60.13
2023-04-02T10:46:24.465Z,59.75
2023-04-02T10:47:21.899Z,60.62
2023-04-02T10:48:21.863Z,61.09
2023-04-02T10:49:21.914Z,63.05
2023-04-02T10:50:21.865Z,60.41
2023-04-02T10:51:21.863Z,59.98
2023-04-02T10:52:22.884Z,61.23
2023-04-02T10:53:21.892Z,62.89
2023-04-02T10:54:21.791Z,60.62
2023-04-02T10:55:21.791Z,60.86
2023-04-02T10:56:21.765Z,61.13
2023-04-02T10:57:21.899Z,60.79
2023-04-02T10:58:21.782Z,60.51
2023-04-02T10:59:21.720Z,62.62
2023-04-02T11:00:21.883Z,58.91
2023-04-02T11:01:21.693Z,60.11
2023-04-02T11:02:21.683Z,62.25
2023-04-02T11:03:21.802Z,62.65
2023-04-02T11:04:21.698Z,60.15
2023-04-02T11:05:21.648Z,59.57
2023-04-02T11:06:21.657Z,58.29
2023-04-02T11:07:21.623Z,58.11
2023-04-02T11:08:21.710Z,58.74
2023-04-02T11:09:21.632Z,58.72
2023-04-02T11:10:21.583Z,59.64
2023-04-02T11:11:21.661Z,60.88
2023-04-02T11:12:21.593Z,58.99
2023-04-02T11:13:21.653Z,59.62
2023-04-02T11:14:21.563Z,58.90
2023-04-02T11:15:22.603Z,59.98
2023-04-02T11:16:21.580Z,59.25
2023-04-02T11:17:21.557Z,60.99
2023-04-02T11:18:21.519Z,58.99
2023-04-02T11:19:21.526Z,60.72
2023-04-02T11:20:21.509Z,60.24
2023-04-02T11:21:21.530Z,58.23
2023-04-02T11:22:21.513Z,60.97
2023-04-02T11:23:21.448Z,60.77
2023-04-02T11:24:21.520Z,57.82
2023-04-02T11:25:21.537Z,58.42
2023-04-02T11:26:22.448Z,59.85
2023-04-02T11:27:21.420Z,59.52
2023-04-02T11:28:21.927Z,60.45
2023-04-02T11:29:21.386Z,59.21
2023-04-02T11:30:21.416Z,59.96
2023-04-02T11:31:21.397Z,59.61
2023-04-02T11:32:21.378Z,58.33
2023-04-02T11:33:30.062Z,58.60
2023-04-02T11:34:21.523Z,59.77
2023-04-02T11:35:21.343Z,61.37
2023-04-02T11:36:21.997Z,61.40
2023-04-02T11:37:22.738Z,58.71
2023-04-02T11:38:22.117Z,60.84
2023-04-02T11:39:22.257Z,58.54
2023-04-02T11:40:22.086Z,61.38
2023-04-02T11:41:21.275Z,58.68
2023-04-02T11:42:23.764Z,60.40
2023-04-02T11:43:22.735Z,60.14
2023-04-02T11:44:22.198Z,60.32
2023-04-02T11:45:21.394Z,62.20
2023-04-02T11:46:21.486Z,60.84
2023-04-02T11:47:22.184Z,61.73
2023-04-02T11:48:21.149Z,61.46
2023-04-02T11:49:22.237Z,61.26
2023-04-02T11:50:21.222Z,60.27
2023-04-02T11:51:21.379Z,61.86
2023-04-02T11:52:22.160Z,63.08
2023-04-02T11:53:21.139Z,63.44
2023-04-02T11:54:21.105Z,61.72
2023-04-02T11:55:21.132Z,60.05
2023-04-02T11:56:21.319Z,60.29
2023-04-02T11:57:21.667Z,60.25
2023-04-02T11:58:22.104Z,59.68
2023-04-02T11:59:21.022Z,59.25
2023-04-02T12:00:21.017Z,60.71
2023-04-02T12:01:21.001Z,60.53
2023-04-02T12:02:21.125Z,60.59
2023-04-02T12:03:21.156Z,59.76
2023-04-02T12:04:20.987Z,60.51
2023-04-02T12:05:21.113Z,58.54
2023-04-02T12:06:20.962Z,60.01
2023-04-02T12:07:21.358Z,58.15
2023-04-02T12:08:20.945Z,59.26
2023-04-02T12:09:20.934Z,60.64
2023-04-02T12:10:20.923Z,60.75
2023-04-02T12:11:22.401Z,60.79
2023-04-02T12:12:22.273Z,60.90
2023-04-02T12:13:25.059Z,62.80
2023-04-02T12:14:21.234Z,58.80
2023-04-02T12:15:21.811Z,59.61
2023-04-02T12:16:21.750Z,59.78
2023-04-02T12:17:20.970Z,58.39
2023-04-02T12:18:20.885Z,58.64
2023-04-02T12:19:21.270Z,56.48
2023-04-02T12:20:21.719Z,59.61
2023-04-02T12:21:20.844Z,58.72
2023-04-02T12:22:20.772Z,57.58
2023-04-02T12:23:20.781Z,58.43
2023-04-02T12:24:20.926Z,59.33
2023-04-02T12:25:21.290Z,59.74
2023-04-02T12:26:23.053Z,58.89
2023-04-02T12:30:08.214Z,57.39
2023-04-02T12:31:08.092Z,58.21
2023-04-02T12:32:08.029Z,59.22
2023-04-02T12:33:08.103Z,59.13
2023-04-02T12:34:07.991Z,60.02
2023-04-02T12:35:07.988Z,59.52
2023-04-02T12:36:07.971Z,59.60
2023-04-02T12:37:08.008Z,58.62
2023-04-02T12:38:18.337Z,59.03
2023-04-02T12:39:08.226Z,58.83
2023-04-02T12:40:08.132Z,59.91
2023-04-02T12:41:07.903Z,57.75
2023-04-02T12:42:07.865Z,57.58
2023-04-02T12:43:07.859Z,57.28
2023-04-02T12:44:07.868Z,59.16
2023-04-02T12:45:07.866Z,60.60
2023-04-02T12:46:07.890Z,58.37
2023-04-02T12:47:07.846Z,59.74
2023-04-02T12:48:07.879Z,61.21
2023-04-02T12:49:07.779Z,60.83
2023-04-02T12:50:07.800Z,59.22
2023-04-02T12:51:07.757Z,59.85
2023-04-02T12:52:07.799Z,60.86
2023-04-02T12:53:07.782Z,60.38
2023-04-02T12:54:07.718Z,58.92
2023-04-02T12:55:07.811Z,58.49
2023-04-02T12:56:07.729Z,59.38
2023-04-02T12:57:07.791Z,60.70
2023-04-02T12:58:07.672Z,60.11
2023-04-02T12:59:07.723Z,59.50
2023-04-02T13:00:07.668Z,57.76
2023-04-02T13:07:34.183Z,61.38
2023-04-02T13:08:34.909Z,60.27
2023-04-02T13:09:34.171Z,60.78
2023-04-02T13:10:34.241Z,59.53
2023-04-02T13:11:34.036Z,59.73
2023-04-02T13:12:34.030Z,58.65
2023-04-02T13:13:34.016Z,59.71
2023-04-02T13:14:33.983Z,58.34
2023-04-02T13:15:34.278Z,59.29
2023-04-02T13:16:34.034Z,59.80
2023-04-02T13:17:33.964Z,57.44
2023-04-02T13:18:33.932Z,56.34
2023-04-02T13:19:34.013Z,57.63
2023-04-02T13:20:34.132Z,57.05
2023-04-02T13:21:33.929Z,57.80
2023-04-02T13:22:33.881Z,59.73
2023-04-02T13:23:33.878Z,59.88
2023-04-02T13:24:33.875Z,58.74
2023-04-02T13:25:33.843Z,58.89
2023-04-02T13:26:33.850Z,58.78
2023-04-02T13:27:33.889Z,59.57
2023-04-02T13:28:33.808Z,57.67